sensor_id;sensor_type;location;lat;lon;timestamp;P1;durP1;ratioP1;P2;durP2;ratioP2
55312;SDS011;46892;45.668;11.756;2023-02-28T00:01:05;7.30;;;5.17;;
55312;SDS011;46892;45.668;11.756;2023-02-28T00:03:31;7.40;;;5.13;;
55312;SDS011;46892;45.668;11.756;2023-02-28T00:06:00;9.60;;;5.33;;
55312;SDS011;46892;45.668;11.756;2023-02-28T00:08:26;8.93;;;5.53;;
55312;SDS011;46892;45.668;11.756;2023-02-28T00:10:52;7.53;;;5.03;;
55312;SDS011;46892;45.668;11.756;2023-02-28T00:13:18;8.47;;;5.10;;
55312;SDS011;46892;45.668;11.756;2023-02-28T00:15:43;8.80;;;5.70;;
55312;SDS011;46892;45.668;11.756;2023-02-28T00:18:10;9.00;;;5.10;;
55312;SDS011;46892;45.668;11.756;2023-02-28T00:20:36;8.00;;;5.00;;
55312;SDS011;46892;45.668;11.756;2023-02-28T00:23:02;8.90;;;5.77;;
55312;SDS011;46892;45.668;11.756;2023-02-28T00:25:28;9.10;;;5.47;;
55312;SDS011;46892;45.668;11.756;2023-02-28T00:27:54;8.50;;;5.40;;
55312;SDS011;46892;45.668;11.756;2023-02-28T00:30:22;7.10;;;4.93;;
55312;SDS011;46892;45.668;11.756;2023-02-28T00:32:49;9.40;;;5.17;;
55312;SDS011;46892;45.668;11.756;2023-02-28T00:35:15;8.73;;;5.27;;
55312;SDS011;46892;45.668;11.756;2023-02-28T00:37:42;9.03;;;5.00;;
55312;SDS011;46892;45.668;11.756;2023-02-28T00:40:08;7.47;;;5.07;;
55312;SDS011;46892;45.668;11.756;2023-02-28T00:42:35;6.80;;;4.53;;
55312;SDS011;46892;45.668;11.756;2023-02-28T00:45:01;7.03;;;4.90;;
55312;SDS011;46892;45.668;11.756;2023-02-28T00:47:29;9.93;;;5.83;;
55312;SDS011;46892;45.668;11.756;2023-02-28T00:49:54;9.20;;;5.60;;
55312;SDS011;46892;45.668;11.756;2023-02-28T00:52:20;8.63;;;5.40;;
55312;SDS011;46892;45.668;11.756;2023-02-28T00:54:46;11.33;;;6.00;;
55312;SDS011;46892;45.668;11.756;2023-02-28T00:57:12;10.17;;;6.30;;
55312;SDS011;46892;45.668;11.756;2023-02-28T00:59:37;10.30;;;5.80;;
55312;SDS011;46892;45.668;11.756;2023-02-28T01:02:03;10.30;;;6.03;;
55312;SDS011;46892;45.668;11.756;2023-02-28T01:04:29;9.50;;;5.87;;
55312;SDS011;46892;45.668;11.756;2023-02-28T01:06:55;8.67;;;5.50;;
55312;SDS011;46892;45.668;11.756;2023-02-28T01:09:20;8.87;;;6.10;;
55312;SDS011;46892;45.668;11.756;2023-02-28T01:11:46;8.73;;;5.47;;
55312;SDS011;46892;45.668;11.756;2023-02-28T01:14:12;8.90;;;5.90;;
55312;SDS011;46892;45.668;11.756;2023-02-28T01:16:39;8.07;;;5.77;;
55312;SDS011;46892;45.668;11.756;2023-02-28T01:19:05;9.33;;;5.33;;
55312;SDS011;46892;45.668;11.756;2023-02-28T01:21:31;9.33;;;5.93;;
55312;SDS011;46892;45.668;11.756;2023-02-28T01:23:57;9.20;;;5.70;;
55312;SDS011;46892;45.668;11.756;2023-02-28T01:26:23;8.43;;;6.33;;
55312;SDS011;46892;45.668;11.756;2023-02-28T01:28:50;8.00;;;5.43;;
55312;SDS011;46892;45.668;11.756;2023-02-28T01:31:16;8.93;;;5.70;;
55312;SDS011;46892;45.668;11.756;2023-02-28T01:33:43;9.40;;;5.80;;
55312;SDS011;46892;45.668;11.756;2023-02-28T01:36:19;8.17;;;5.77;;
55312;SDS011;46892;45.668;11.756;2023-02-28T01:38:47;8.83;;;5.87;;
55312;SDS011;46892;45.668;11.756;2023-02-28T01:41:17;8.23;;;5.37;;
55312;SDS011;46892;45.668;11.756;2023-02-28T01:43:58;7.53;;;5.00;;
55312;SDS011;46892;45.668;11.756;2023-02-28T01:46:24;5.93;;;4.33;;
55312;SDS011;46892;45.668;11.756;2023-02-28T01:51:46;7.97;;;5.10;;
55312;SDS011;46892;45.668;11.756;2023-02-28T01:54:18;7.80;;;4.90;;
55312;SDS011;46892;45.668;11.756;2023-02-28T01:56:50;7.50;;;5.03;;
55312;SDS011;46892;45.668;11.756;2023-02-28T01:59:30;6.47;;;4.93;;
55312;SDS011;46892;45.668;11.756;2023-02-28T02:02:03;7.17;;;4.80;;
55312;SDS011;46892;45.668;11.756;2023-02-28T02:04:33;7.13;;;4.40;;
55312;SDS011;46892;45.668;11.756;2023-02-28T02:07:04;7.60;;;4.93;;
55312;SDS011;46892;45.668;11.756;2023-02-28T02:09:29;7.97;;;4.67;;
55312;SDS011;46892;45.668;11.756;2023-02-28T02:11:55;7.57;;;4.50;;
55312;SDS011;46892;45.668;11.756;2023-02-28T02:42:03;6.30;;;4.37;;
55312;SDS011;46892;45.668;11.756;2023-02-28T02:45:12;7.93;;;4.77;;
55312;SDS011;46892;45.668;11.756;2023-02-28T02:47:50;7.10;;;4.47;;
55312;SDS011;46892;45.668;11.756;2023-02-28T02:50:19;6.67;;;4.73;;
55312;SDS011;46892;45.668;11.756;2023-02-28T02:52:54;7.67;;;4.97;;
55312;SDS011;46892;45.668;11.756;2023-02-28T02:55:23;7.22;;;4.20;;
55312;SDS011;46892;45.668;11.756;2023-02-28T02:57:53;6.70;;;4.70;;
55312;SDS011;46892;45.668;11.756;2023-02-28T03:00:29;6.90;;;4.50;;
55312;SDS011;46892;45.668;11.756;2023-02-28T03:02:59;6.67;;;4.23;;
55312;SDS011;46892;45.668;11.756;2023-02-28T03:05:28;6.30;;;4.53;;
55312;SDS011;46892;45.668;11.756;2023-02-28T03:07:59;7.70;;;4.73;;
55312;SDS011;46892;45.668;11.756;2023-02-28T03:21:31;6.50;;;4.23;;
55312;SDS011;46892;45.668;11.756;2023-02-28T03:24:10;6.65;;;4.43;;
55312;SDS011;46892;45.668;11.756;2023-02-28T03:26:53;7.70;;;4.87;;
55312;SDS011;46892;45.668;11.756;2023-02-28T03:29:29;7.37;;;4.43;;
55312;SDS011;46892;45.668;11.756;2023-02-28T03:34:45;6.78;;;4.35;;
55312;SDS011;46892;45.668;11.756;2023-02-28T03:37:23;7.63;;;4.93;;
55312;SDS011;46892;45.668;11.756;2023-02-28T03:39:59;6.33;;;4.40;;
55312;SDS011;46892;45.668;11.756;2023-02-28T03:42:34;7.90;;;4.33;;
55312;SDS011;46892;45.668;11.756;2023-02-28T03:45:10;6.73;;;4.40;;
55312;SDS011;46892;45.668;11.756;2023-02-28T03:47:43;8.40;;;4.43;;
55312;SDS011;46892;45.668;11.756;2023-02-28T03:52:51;7.88;;;5.07;;
55312;SDS011;46892;45.668;11.756;2023-02-28T03:55:26;7.93;;;5.23;;
55312;SDS011;46892;45.668;11.756;2023-02-28T04:00:46;6.67;;;4.53;;
55312;SDS011;46892;45.668;11.756;2023-02-28T04:03:15;7.27;;;4.53;;
55312;SDS011;46892;45.668;11.756;2023-02-28T04:05:48;7.80;;;4.90;;
55312;SDS011;46892;45.668;11.756;2023-02-28T04:08:17;8.33;;;4.53;;
55312;SDS011;46892;45.668;11.756;2023-02-28T04:10:43;6.97;;;4.63;;
55312;SDS011;46892;45.668;11.756;2023-02-28T04:13:13;8.05;;;4.60;;
55312;SDS011;46892;45.668;11.756;2023-02-28T04:15:38;8.23;;;4.80;;
55312;SDS011;46892;45.668;11.756;2023-02-28T04:18:04;7.37;;;4.77;;
55312;SDS011;46892;45.668;11.756;2023-02-28T04:20:31;8.07;;;4.97;;
55312;SDS011;46892;45.668;11.756;2023-02-28T04:22:56;9.00;;;5.17;;
55312;SDS011;46892;45.668;11.756;2023-02-28T04:25:22;7.97;;;4.97;;
55312;SDS011;46892;45.668;11.756;2023-02-28T04:27:47;7.50;;;5.03;;
55312;SDS011;46892;45.668;11.756;2023-02-28T04:30:13;7.00;;;4.37;;
55312;SDS011;46892;45.668;11.756;2023-02-28T04:32:39;7.87;;;4.90;;
55312;SDS011;46892;45.668;11.756;2023-02-28T04:35:05;7.40;;;4.83;;
55312;SDS011;46892;45.668;11.756;2023-02-28T04:37:30;6.70;;;4.13;;
55312;SDS011;46892;45.668;11.756;2023-02-28T04:39:59;7.97;;;4.70;;
55312;SDS011;46892;45.668;11.756;2023-02-28T04:42:25;7.27;;;4.87;;
55312;SDS011;46892;45.668;11.756;2023-02-28T04:44:51;7.60;;;5.33;;
55312;SDS011;46892;45.668;11.756;2023-02-28T04:47:17;8.63;;;4.57;;
55312;SDS011;46892;45.668;11.756;2023-02-28T04:49:43;8.13;;;5.13;;
55312;SDS011;46892;45.668;11.756;2023-02-28T04:52:08;7.10;;;4.93;;
55312;SDS011;46892;45.668;11.756;2023-02-28T04:54:35;7.87;;;5.43;;
55312;SDS011;46892;45.668;11.756;2023-02-28T04:57:03;6.47;;;4.70;;
55312;SDS011;46892;45.668;11.756;2023-02-28T04:59:29;8.80;;;5.23;;
55312;SDS011;46892;45.668;11.756;2023-02-28T05:01:54;8.33;;;5.00;;
55312;SDS011;46892;45.668;11.756;2023-02-28T05:04:20;8.53;;;5.23;;
55312;SDS011;46892;45.668;11.756;2023-02-28T05:06:46;8.47;;;5.67;;
55312;SDS011;46892;45.668;11.756;2023-02-28T05:09:12;7.53;;;4.97;;
55312;SDS011;46892;45.668;11.756;2023-02-28T05:11:37;8.53;;;5.57;;
55312;SDS011;46892;45.668;11.756;2023-02-28T05:14:05;9.00;;;5.50;;
55312;SDS011;46892;45.668;11.756;2023-02-28T05:16:36;7.57;;;4.87;;
55312;SDS011;46892;45.668;11.756;2023-02-28T05:19:02;8.83;;;5.67;;
55312;SDS011;46892;45.668;11.756;2023-02-28T05:21:32;8.63;;;5.27;;
55312;SDS011;46892;45.668;11.756;2023-02-28T05:24:06;7.83;;;5.30;;
55312;SDS011;46892;45.668;11.756;2023-02-28T05:26:35;7.67;;;5.10;;
55312;SDS011;46892;45.668;11.756;2023-02-28T05:29:02;9.17;;;5.27;;
55312;SDS011;46892;45.668;11.756;2023-02-28T05:31:28;7.77;;;5.20;;
55312;SDS011;46892;45.668;11.756;2023-02-28T05:33:53;7.40;;;5.03;;
55312;SDS011;46892;45.668;11.756;2023-02-28T05:36:19;8.43;;;5.10;;
55312;SDS011;46892;45.668;11.756;2023-02-28T05:38:46;8.40;;;5.17;;
55312;SDS011;46892;45.668;11.756;2023-02-28T05:41:13;8.37;;;5.83;;
55312;SDS011;46892;45.668;11.756;2023-02-28T05:43:38;8.87;;;5.17;;
55312;SDS011;46892;45.668;11.756;2023-02-28T05:46:05;10.80;;;5.40;;
55312;SDS011;46892;45.668;11.756;2023-02-28T05:48:32;8.97;;;5.00;;
55312;SDS011;46892;45.668;11.756;2023-02-28T05:50:58;7.93;;;4.93;;
55312;SDS011;46892;45.668;11.756;2023-02-28T05:53:24;8.23;;;5.40;;
55312;SDS011;46892;45.668;11.756;2023-02-28T05:55:49;9.30;;;5.27;;
55312;SDS011;46892;45.668;11.756;2023-02-28T05:58:15;7.67;;;5.43;;
55312;SDS011;46892;45.668;11.756;2023-02-28T06:00:41;9.97;;;5.80;;
55312;SDS011;46892;45.668;11.756;2023-02-28T06:03:06;8.00;;;4.83;;
55312;SDS011;46892;45.668;11.756;2023-02-28T06:05:32;7.97;;;5.00;;
55312;SDS011;46892;45.668;11.756;2023-02-28T06:07:58;7.47;;;4.93;;
55312;SDS011;46892;45.668;11.756;2023-02-28T06:10:23;9.27;;;5.53;;
55312;SDS011;46892;45.668;11.756;2023-02-28T06:12:49;8.23;;;4.90;;
55312;SDS011;46892;45.668;11.756;2023-02-28T06:15:15;10.60;;;5.60;;
55312;SDS011;46892;45.668;11.756;2023-02-28T06:17:42;9.90;;;5.60;;
55312;SDS011;46892;45.668;11.756;2023-02-28T06:20:08;8.43;;;5.47;;
55312;SDS011;46892;45.668;11.756;2023-02-28T06:22:35;8.60;;;4.93;;
55312;SDS011;46892;45.668;11.756;2023-02-28T06:25:02;16.50;;;6.50;;
55312;SDS011;46892;45.668;11.756;2023-02-28T06:27:28;9.43;;;6.43;;
55312;SDS011;46892;45.668;11.756;2023-02-28T06:29:55;9.23;;;5.50;;
55312;SDS011;46892;45.668;11.756;2023-02-28T06:32:21;8.53;;;5.80;;
55312;SDS011;46892;45.668;11.756;2023-02-28T06:34:47;9.07;;;5.37;;
55312;SDS011;46892;45.668;11.756;2023-02-28T06:37:13;11.97;;;7.00;;
55312;SDS011;46892;45.668;11.756;2023-02-28T06:39:38;9.80;;;6.20;;
55312;SDS011;46892;45.668;11.756;2023-02-28T06:42:04;12.33;;;7.90;;
55312;SDS011;46892;45.668;11.756;2023-02-28T06:44:30;13.43;;;8.67;;
55312;SDS011;46892;45.668;11.756;2023-02-28T06:47:00;13.90;;;7.93;;
55312;SDS011;46892;45.668;11.756;2023-02-28T06:49:28;14.10;;;8.93;;
55312;SDS011;46892;45.668;11.756;2023-02-28T06:51:58;12.13;;;7.43;;
55312;SDS011;46892;45.668;11.756;2023-02-28T06:54:24;10.73;;;6.80;;
55312;SDS011;46892;45.668;11.756;2023-02-28T06:56:50;14.27;;;7.00;;
55312;SDS011;46892;45.668;11.756;2023-02-28T06:59:16;10.50;;;6.43;;
55312;SDS011;46892;45.668;11.756;2023-02-28T07:01:42;12.67;;;6.73;;
55312;SDS011;46892;45.668;11.756;2023-02-28T07:04:08;12.70;;;6.37;;
55312;SDS011;46892;45.668;11.756;2023-02-28T07:06:34;9.80;;;5.60;;
55312;SDS011;46892;45.668;11.756;2023-02-28T07:09:00;9.97;;;5.50;;
55312;SDS011;46892;45.668;11.756;2023-02-28T07:11:26;10.33;;;5.83;;
55312;SDS011;46892;45.668;11.756;2023-02-28T07:13:53;9.23;;;5.67;;
55312;SDS011;46892;45.668;11.756;2023-02-28T07:16:19;8.10;;;5.30;;
55312;SDS011;46892;45.668;11.756;2023-02-28T07:18:45;8.83;;;4.97;;
55312;SDS011;46892;45.668;11.756;2023-02-28T07:21:11;10.23;;;5.33;;
55312;SDS011;46892;45.668;11.756;2023-02-28T07:23:37;8.67;;;5.27;;
55312;SDS011;46892;45.668;11.756;2023-02-28T07:26:04;9.43;;;5.67;;
55312;SDS011;46892;45.668;11.756;2023-02-28T07:28:30;10.00;;;5.47;;
55312;SDS011;46892;45.668;11.756;2023-02-28T07:30:56;9.27;;;5.40;;
55312;SDS011;46892;45.668;11.756;2023-02-28T07:33:22;7.97;;;5.13;;
55312;SDS011;46892;45.668;11.756;2023-02-28T07:35:48;8.43;;;5.57;;
55312;SDS011;46892;45.668;11.756;2023-02-28T07:38:14;8.40;;;5.37;;
55312;SDS011;46892;45.668;11.756;2023-02-28T07:40:40;10.63;;;5.90;;
55312;SDS011;46892;45.668;11.756;2023-02-28T07:43:06;10.67;;;5.97;;
55312;SDS011;46892;45.668;11.756;2023-02-28T07:45:32;8.77;;;5.10;;
55312;SDS011;46892;45.668;11.756;2023-02-28T07:47:59;9.23;;;5.60;;
55312;SDS011;46892;45.668;11.756;2023-02-28T07:50:25;9.77;;;6.07;;
55312;SDS011;46892;45.668;11.756;2023-02-28T07:52:54;10.33;;;6.73;;
55312;SDS011;46892;45.668;11.756;2023-02-28T07:55:20;15.87;;;8.27;;
55312;SDS011;46892;45.668;11.756;2023-02-28T07:57:45;20.00;;;11.60;;
55312;SDS011;46892;45.668;11.756;2023-02-28T08:00:11;13.10;;;6.40;;
55312;SDS011;46892;45.668;11.756;2023-02-28T08:02:38;9.70;;;5.13;;
55312;SDS011;46892;45.668;11.756;2023-02-28T08:05:04;9.37;;;5.60;;
55312;SDS011;46892;45.668;11.756;2023-02-28T08:07:31;10.70;;;5.33;;
55312;SDS011;46892;45.668;11.756;2023-02-28T08:09:57;10.43;;;6.37;;
55312;SDS011;46892;45.668;11.756;2023-02-28T08:12:23;9.83;;;5.63;;
55312;SDS011;46892;45.668;11.756;2023-02-28T08:14:48;8.93;;;5.03;;
55312;SDS011;46892;45.668;11.756;2023-02-28T08:17:14;9.27;;;5.37;;
55312;SDS011;46892;45.668;11.756;2023-02-28T08:19:40;14.17;;;8.00;;
55312;SDS011;46892;45.668;11.756;2023-02-28T08:22:05;9.37;;;5.77;;
55312;SDS011;46892;45.668;11.756;2023-02-28T08:24:31;10.07;;;5.97;;
55312;SDS011;46892;45.668;11.756;2023-02-28T08:26:57;9.63;;;5.50;;
55312;SDS011;46892;45.668;11.756;2023-02-28T08:29:22;10.00;;;5.63;;
55312;SDS011;46892;45.668;11.756;2023-02-28T08:31:48;9.50;;;5.40;;
55312;SDS011;46892;45.668;11.756;2023-02-28T08:34:14;9.23;;;5.30;;
55312;SDS011;46892;45.668;11.756;2023-02-28T08:36:41;10.93;;;7.90;;
55312;SDS011;46892;45.668;11.756;2023-02-28T08:39:09;9.37;;;5.30;;
55312;SDS011;46892;45.668;11.756;2023-02-28T08:41:35;9.70;;;5.40;;
55312;SDS011;46892;45.668;11.756;2023-02-28T08:44:01;10.23;;;5.33;;
55312;SDS011;46892;45.668;11.756;2023-02-28T08:46:27;8.73;;;4.97;;
55312;SDS011;46892;45.668;11.756;2023-02-28T08:48:54;9.00;;;5.20;;
55312;SDS011;46892;45.668;11.756;2023-02-28T08:53:53;9.13;;;4.83;;
55312;SDS011;46892;45.668;11.756;2023-02-28T08:56:20;9.03;;;5.20;;
55312;SDS011;46892;45.668;11.756;2023-02-28T08:58:47;10.00;;;5.77;;
55312;SDS011;46892;45.668;11.756;2023-02-28T09:01:14;9.40;;;5.50;;
55312;SDS011;46892;45.668;11.756;2023-02-28T09:03:45;10.43;;;5.37;;
55312;SDS011;46892;45.668;11.756;2023-02-28T09:06:12;9.63;;;5.50;;
55312;SDS011;46892;45.668;11.756;2023-02-28T09:08:39;8.57;;;5.60;;
55312;SDS011;46892;45.668;11.756;2023-02-28T09:11:05;9.23;;;5.33;;
55312;SDS011;46892;45.668;11.756;2023-02-28T09:13:31;9.20;;;5.13;;
55312;SDS011;46892;45.668;11.756;2023-02-28T09:15:58;10.00;;;5.23;;
55312;SDS011;46892;45.668;11.756;2023-02-28T09:18:25;10.23;;;5.47;;
55312;SDS011;46892;45.668;11.756;2023-02-28T09:20:51;10.17;;;5.40;;
55312;SDS011;46892;45.668;11.756;2023-02-28T09:23:17;8.33;;;4.87;;
55312;SDS011;46892;45.668;11.756;2023-02-28T09:25:47;9.80;;;5.30;;
55312;SDS011;46892;45.668;11.756;2023-02-28T09:28:13;9.55;;;5.38;;
55312;SDS011;46892;45.668;11.756;2023-02-28T09:30:43;8.17;;;4.77;;
55312;SDS011;46892;45.668;11.756;2023-02-28T09:33:10;8.83;;;5.73;;
55312;SDS011;46892;45.668;11.756;2023-02-28T09:35:37;9.03;;;5.40;;
55312;SDS011;46892;45.668;11.756;2023-02-28T09:38:03;9.67;;;5.53;;
55312;SDS011;46892;45.668;11.756;2023-02-28T09:40:30;8.93;;;5.07;;
55312;SDS011;46892;45.668;11.756;2023-02-28T09:42:56;7.97;;;4.83;;
55312;SDS011;46892;45.668;11.756;2023-02-28T09:48:03;10.40;;;5.83;;
55312;SDS011;46892;45.668;11.756;2023-02-28T09:50:41;8.30;;;4.90;;
55312;SDS011;46892;45.668;11.756;2023-02-28T09:53:33;8.90;;;5.47;;
55312;SDS011;46892;45.668;11.756;2023-02-28T09:56:07;10.33;;;5.90;;
55312;SDS011;46892;45.668;11.756;2023-02-28T10:04:11;11.40;;;5.60;;
55312;SDS011;46892;45.668;11.756;2023-02-28T10:06:48;7.90;;;5.00;;
55312;SDS011;46892;45.668;11.756;2023-02-28T10:09:25;8.23;;;5.23;;
55312;SDS011;46892;45.668;11.756;2023-02-28T10:11:56;7.82;;;5.25;;
55312;SDS011;46892;45.668;11.756;2023-02-28T10:14:28;8.07;;;5.00;;
55312;SDS011;46892;45.668;11.756;2023-02-28T10:16:59;8.90;;;5.50;;
55312;SDS011;46892;45.668;11.756;2023-02-28T10:22:58;9.43;;;5.47;;
55312;SDS011;46892;45.668;11.756;2023-02-28T10:25:47;9.30;;;5.63;;
55312;SDS011;46892;45.668;11.756;2023-02-28T10:28:19;9.30;;;5.57;;
55312;SDS011;46892;45.668;11.756;2023-02-28T10:30:48;7.47;;;5.00;;
55312;SDS011;46892;45.668;11.756;2023-02-28T10:33:23;12.73;;;7.73;;
55312;SDS011;46892;45.668;11.756;2023-02-28T10:35:59;9.63;;;5.43;;
55312;SDS011;46892;45.668;11.756;2023-02-28T10:38:37;10.03;;;6.00;;
55312;SDS011;46892;45.668;11.756;2023-02-28T10:41:06;9.77;;;5.50;;
55312;SDS011;46892;45.668;11.756;2023-02-28T10:43:32;9.70;;;5.80;;
55312;SDS011;46892;45.668;11.756;2023-02-28T10:45:59;12.03;;;6.13;;
55312;SDS011;46892;45.668;11.756;2023-02-28T10:48:57;8.80;;;5.30;;
55312;SDS011;46892;45.668;11.756;2023-02-28T10:51:37;8.77;;;5.10;;
55312;SDS011;46892;45.668;11.756;2023-02-28T10:54:05;8.57;;;5.00;;
55312;SDS011;46892;45.668;11.756;2023-02-28T10:56:39;9.13;;;5.33;;
55312;SDS011;46892;45.668;11.756;2023-02-28T11:04:50;9.38;;;5.63;;
55312;SDS011;46892;45.668;11.756;2023-02-28T11:09:51;8.07;;;4.80;;
55312;SDS011;46892;45.668;11.756;2023-02-28T11:14:47;9.13;;;5.00;;
55312;SDS011;46892;45.668;11.756;2023-02-28T11:17:29;8.00;;;4.80;;
55312;SDS011;46892;45.668;11.756;2023-02-28T11:20:01;8.57;;;5.20;;
55312;SDS011;46892;45.668;11.756;2023-02-28T11:22:32;9.77;;;5.30;;
55312;SDS011;46892;45.668;11.756;2023-02-28T11:25:06;9.10;;;5.67;;
55312;SDS011;46892;45.668;11.756;2023-02-28T11:27:54;7.10;;;4.23;;
55312;SDS011;46892;45.668;11.756;2023-02-28T11:30:27;9.02;;;5.38;;
55312;SDS011;46892;45.668;11.756;2023-02-28T11:32:53;8.73;;;5.23;;
55312;SDS011;46892;45.668;11.756;2023-02-28T11:38:02;9.00;;;5.50;;
55312;SDS011;46892;45.668;11.756;2023-02-28T11:51:23;11.27;;;5.60;;
55312;SDS011;46892;45.668;11.756;2023-02-28T11:57:00;8.97;;;5.67;;
55312;SDS011;46892;45.668;11.756;2023-02-28T11:59:46;8.73;;;5.07;;
55312;SDS011;46892;45.668;11.756;2023-02-28T12:02:24;10.07;;;5.30;;
55312;SDS011;46892;45.668;11.756;2023-02-28T12:10:26;8.10;;;4.60;;
55312;SDS011;46892;45.668;11.756;2023-02-28T12:15:47;8.17;;;5.27;;
55312;SDS011;46892;45.668;11.756;2023-02-28T12:26:44;8.03;;;4.93;;
55312;SDS011;46892;45.668;11.756;2023-02-28T12:34:52;11.07;;;5.17;;
55312;SDS011;46892;45.668;11.756;2023-02-28T12:37:47;8.67;;;5.40;;
55312;SDS011;46892;45.668;11.756;2023-02-28T12:40:11;8.43;;;5.03;;
55312;SDS011;46892;45.668;11.756;2023-02-28T12:42:45;8.68;;;5.25;;
55312;SDS011;46892;45.668;11.756;2023-02-28T12:47:52;9.70;;;5.17;;
55312;SDS011;46892;45.668;11.756;2023-02-28T12:50:27;8.70;;;5.35;;
55312;SDS011;46892;45.668;11.756;2023-02-28T12:56:08;9.73;;;6.03;;
55312;SDS011;46892;45.668;11.756;2023-02-28T13:02:33;8.70;;;5.13;;
55312;SDS011;46892;45.668;11.756;2023-02-28T13:10:58;7.97;;;4.70;;
55312;SDS011;46892;45.668;11.756;2023-02-28T13:13:24;8.40;;;5.30;;
55312;SDS011;46892;45.668;11.756;2023-02-28T13:18:39;8.83;;;5.63;;
55312;SDS011;46892;45.668;11.756;2023-02-28T13:21:09;8.33;;;5.30;;
55312;SDS011;46892;45.668;11.756;2023-02-28T13:34:27;9.10;;;5.73;;
55312;SDS011;46892;45.668;11.756;2023-02-28T13:37:21;12.57;;;5.77;;
55312;SDS011;46892;45.668;11.756;2023-02-28T13:40:22;12.67;;;6.00;;
55312;SDS011;46892;45.668;11.756;2023-02-28T13:42:55;9.87;;;5.87;;
55312;SDS011;46892;45.668;11.756;2023-02-28T13:45:27;10.07;;;5.70;;
55312;SDS011;46892;45.668;11.756;2023-02-28T13:48:05;11.20;;;6.50;;
55312;SDS011;46892;45.668;11.756;2023-02-28T13:50:42;9.70;;;5.63;;
55312;SDS011;46892;45.668;11.756;2023-02-28T14:07:01;7.93;;;5.40;;
55312;SDS011;46892;45.668;11.756;2023-02-28T14:09:29;8.70;;;5.80;;
55312;SDS011;46892;45.668;11.756;2023-02-28T14:11:55;9.93;;;5.90;;
55312;SDS011;46892;45.668;11.756;2023-02-28T14:17:04;10.47;;;5.60;;
55312;SDS011;46892;45.668;11.756;2023-02-28T14:19:39;9.87;;;5.83;;
55312;SDS011;46892;45.668;11.756;2023-02-28T14:27:45;10.20;;;5.70;;
55312;SDS011;46892;45.668;11.756;2023-02-28T14:36:38;8.20;;;5.33;;
55312;SDS011;46892;45.668;11.756;2023-02-28T14:39:10;10.47;;;5.73;;
55312;SDS011;46892;45.668;11.756;2023-02-28T14:41:40;8.17;;;5.57;;
55312;SDS011;46892;45.668;11.756;2023-02-28T14:44:20;10.13;;;5.80;;
55312;SDS011;46892;45.668;11.756;2023-02-28T14:46:49;7.87;;;5.30;;
55312;SDS011;46892;45.668;11.756;2023-02-28T14:49:41;10.70;;;5.37;;
55312;SDS011;46892;45.668;11.756;2023-02-28T14:52:20;11.33;;;6.43;;
55312;SDS011;46892;45.668;11.756;2023-02-28T14:54:55;8.27;;;5.30;;
55312;SDS011;46892;45.668;11.756;2023-02-28T14:57:31;9.10;;;5.57;;
55312;SDS011;46892;45.668;11.756;2023-02-28T15:02:50;8.90;;;5.20;;
55312;SDS011;46892;45.668;11.756;2023-02-28T15:05:25;9.27;;;5.27;;
55312;SDS011;46892;45.668;11.756;2023-02-28T15:08:10;9.80;;;5.60;;
55312;SDS011;46892;45.668;11.756;2023-02-28T15:10:41;8.60;;;5.33;;
55312;SDS011;46892;45.668;11.756;2023-02-28T15:13:16;9.30;;;5.20;;
55312;SDS011;46892;45.668;11.756;2023-02-28T15:20:48;8.77;;;4.97;;
55312;SDS011;46892;45.668;11.756;2023-02-28T15:23:15;10.00;;;5.20;;
55312;SDS011;46892;45.668;11.756;2023-02-28T15:25:43;10.20;;;5.40;;
55312;SDS011;46892;45.668;11.756;2023-02-28T15:28:11;8.63;;;5.50;;
55312;SDS011;46892;45.668;11.756;2023-02-28T15:30:49;9.30;;;5.50;;
55312;SDS011;46892;45.668;11.756;2023-02-28T15:33:22;8.83;;;5.23;;
55312;SDS011;46892;45.668;11.756;2023-02-28T15:35:50;9.20;;;5.43;;
55312;SDS011;46892;45.668;11.756;2023-02-28T15:40:52;10.80;;;5.37;;
55312;SDS011;46892;45.668;11.756;2023-02-28T15:48:45;9.03;;;5.30;;
55312;SDS011;46892;45.668;11.756;2023-02-28T15:51:19;8.23;;;5.30;;
55312;SDS011;46892;45.668;11.756;2023-02-28T15:53:50;8.33;;;5.27;;
55312;SDS011;46892;45.668;11.756;2023-02-28T15:58:47;8.60;;;5.37;;
55312;SDS011;46892;45.668;11.756;2023-02-28T16:01:27;8.30;;;5.13;;
55312;SDS011;46892;45.668;11.756;2023-02-28T16:03:56;9.50;;;5.73;;
55312;SDS011;46892;45.668;11.756;2023-02-28T16:06:31;9.40;;;5.45;;
55312;SDS011;46892;45.668;11.756;2023-02-28T16:08:59;9.70;;;5.80;;
55312;SDS011;46892;45.668;11.756;2023-02-28T16:11:24;9.30;;;5.60;;
55312;SDS011;46892;45.668;11.756;2023-02-28T16:13:51;10.07;;;5.80;;
55312;SDS011;46892;45.668;11.756;2023-02-28T16:16:18;9.70;;;5.77;;
55312;SDS011;46892;45.668;11.756;2023-02-28T16:18:46;12.83;;;6.67;;
55312;SDS011;46892;45.668;11.756;2023-02-28T16:21:12;10.30;;;6.20;;
55312;SDS011;46892;45.668;11.756;2023-02-28T16:23:38;9.13;;;5.90;;
55312;SDS011;46892;45.668;11.756;2023-02-28T16:26:04;10.03;;;6.30;;
55312;SDS011;46892;45.668;11.756;2023-02-28T16:28:32;8.83;;;5.73;;
55312;SDS011;46892;45.668;11.756;2023-02-28T16:31:00;10.83;;;5.70;;
55312;SDS011;46892;45.668;11.756;2023-02-28T16:33:29;10.40;;;5.80;;
55312;SDS011;46892;45.668;11.756;2023-02-28T16:35:55;8.17;;;5.20;;
55312;SDS011;46892;45.668;11.756;2023-02-28T16:38:21;9.67;;;5.50;;
55312;SDS011;46892;45.668;11.756;2023-02-28T16:40:48;10.63;;;5.37;;
55312;SDS011;46892;45.668;11.756;2023-02-28T16:43:16;9.13;;;5.33;;
55312;SDS011;46892;45.668;11.756;2023-02-28T16:45:48;10.10;;;6.33;;
55312;SDS011;46892;45.668;11.756;2023-02-28T16:48:19;9.17;;;5.80;;
55312;SDS011;46892;45.668;11.756;2023-02-28T16:50:44;10.50;;;6.30;;
55312;SDS011;46892;45.668;11.756;2023-02-28T16:53:10;14.53;;;6.37;;
55312;SDS011;46892;45.668;11.756;2023-02-28T16:55:36;10.23;;;5.97;;
55312;SDS011;46892;45.668;11.756;2023-02-28T16:58:03;14.70;;;6.70;;
55312;SDS011;46892;45.668;11.756;2023-02-28T17:00:30;9.77;;;6.20;;
55312;SDS011;46892;45.668;11.756;2023-02-28T17:02:57;9.57;;;6.23;;
55312;SDS011;46892;45.668;11.756;2023-02-28T17:05:24;10.43;;;6.27;;
55312;SDS011;46892;45.668;11.756;2023-02-28T17:07:51;14.87;;;6.90;;
55312;SDS011;46892;45.668;11.756;2023-02-28T17:10:24;12.10;;;6.67;;
55312;SDS011;46892;45.668;11.756;2023-02-28T17:12:51;11.50;;;7.00;;
55312;SDS011;46892;45.668;11.756;2023-02-28T17:15:18;12.60;;;7.10;;
55312;SDS011;46892;45.668;11.756;2023-02-28T17:17:44;12.93;;;7.53;;
55312;SDS011;46892;45.668;11.756;2023-02-28T17:20:15;14.53;;;7.67;;
55312;SDS011;46892;45.668;11.756;2023-02-28T17:22:43;13.60;;;7.40;;
55312;SDS011;46892;45.668;11.756;2023-02-28T17:25:09;10.87;;;6.97;;
55312;SDS011;46892;45.668;11.756;2023-02-28T17:27:35;11.73;;;7.20;;
55312;SDS011;46892;45.668;11.756;2023-02-28T17:30:03;12.10;;;7.67;;
55312;SDS011;46892;45.668;11.756;2023-02-28T17:32:49;13.17;;;8.07;;
55312;SDS011;46892;45.668;11.756;2023-02-28T17:35:15;17.33;;;8.87;;
55312;SDS011;46892;45.668;11.756;2023-02-28T17:37:41;17.33;;;10.10;;
55312;SDS011;46892;45.668;11.756;2023-02-28T17:40:12;13.90;;;9.00;;
55312;SDS011;46892;45.668;11.756;2023-02-28T17:42:40;16.80;;;8.83;;
55312;SDS011;46892;45.668;11.756;2023-02-28T17:45:05;16.73;;;8.63;;
55312;SDS011;46892;45.668;11.756;2023-02-28T17:47:31;17.53;;;9.13;;
55312;SDS011;46892;45.668;11.756;2023-02-28T17:49:57;17.50;;;9.60;;
55312;SDS011;46892;45.668;11.756;2023-02-28T17:52:23;15.00;;;10.27;;